sensor_id;sensor_type;location;lat;lon;timestamp;pressure;altitude;pressure_sealevel;temperature;humidity
60832;BME280;46665;51.558;-0.448;2023-01-15T00:00:21;99426.69;;;4.09;100.00
60832;BME280;46665;51.558;-0.448;2023-01-15T00:03:05;99443.63;;;4.04;100.00
60832;BME280;46665;51.558;-0.448;2023-01-15T00:05:49;99445.78;;;3.97;100.00
60832;BME280;46665;51.558;-0.448;2023-01-15T00:08:33;99438.78;;;3.96;100.00
60832;BME280;46665;51.558;-0.448;2023-01-15T00:11:18;99427.47;;;3.89;100.00
60832;BME280;46665;51.558;-0.448;2023-01-15T00:14:03;99421.81;;;3.85;100.00
60832;BME280;46665;51.558;-0.448;2023-01-15T00:16:50;99426.66;;;3.83;100.00
60832;BME280;46665;51.558;-0.448;2023-01-15T00:19:34;99411.84;;;3.81;100.00
60832;BME280;46665;51.558;-0.448;2023-01-15T00:22:18;99426.34;;;3.75;100.00
60832;BME280;46665;51.558;-0.448;2023-01-15T00:25:03;99418.28;;;3.75;100.00
60832;BME280;46665;51.558;-0.448;2023-01-15T00:28:06;99400.75;;;3.62;100.00
60832;BME280;46665;51.558;-0.448;2023-01-15T00:30:50;99386.25;;;3.58;100.00
60832;BME280;46665;51.558;-0.448;2023-01-15T00:33:34;99392.44;;;3.58;100.00
60832;BME280;46665;51.558;-0.448;2023-01-15T00:36:18;99396.19;;;3.57;100.00
60832;BME280;46665;51.558;-0.448;2023-01-15T00:39:03;99402.09;;;3.54;100.00
60832;BME280;46665;51.558;-0.448;2023-01-15T00:41:47;99405.59;;;3.55;100.00
60832;BME280;46665;51.558;-0.448;2023-01-15T00:44:31;99405.88;;;3.53;100.00
60832;BME280;46665;51.558;-0.448;2023-01-15T00:47:16;99406.66;;;3.48;100.00
60832;BME280;46665;51.558;-0.448;2023-01-15T00:50:00;99415.81;;;3.47;100.00
60832;BME280;46665;51.558;-0.448;2023-01-15T00:52:44;99410.41;;;3.42;100.00
60832;BME280;46665;51.558;-0.448;2023-01-15T00:55:28;99417.94;;;3.40;100.00
60832;BME280;46665;51.558;-0.448;2023-01-15T00:58:12;99404.47;;;3.35;100.00
60832;BME280;46665;51.558;-0.448;2023-01-15T01:00:57;99393.97;;;3.34;100.00
60832;BME280;46665;51.558;-0.448;2023-01-15T01:03:42;99391.00;;;3.30;100.00
60832;BME280;46665;51.558;-0.448;2023-01-15T01:06:26;99389.34;;;3.24;100.00
60832;BME280;46665;51.558;-0.448;2023-01-15T01:09:15;99386.66;;;3.24;100.00
60832;BME280;46665;51.558;-0.448;2023-01-15T01:11:59;99378.84;;;3.17;100.00
60832;BME280;46665;51.558;-0.448;2023-01-15T01:14:43;99377.78;;;3.18;100.00
60832;BME280;46665;51.558;-0.448;2023-01-15T01:17:27;99376.16;;;3.17;100.00
60832;BME280;46665;51.558;-0.448;2023-01-15T01:20:13;99383.69;;;3.15;100.00
60832;BME280;46665;51.558;-0.448;2023-01-15T01:22:58;99383.94;;;3.14;100.00
60832;BME280;46665;51.558;-0.448;2023-01-15T01:25:41;99383.94;;;3.14;100.00
60832;BME280;46665;51.558;-0.448;2023-01-15T01:28:25;99398.47;;;3.18;100.00
60832;BME280;46665;51.558;-0.448;2023-01-15T01:31:09;99404.94;;;3.17;100.00
60832;BME280;46665;51.558;-0.448;2023-01-15T01:33:56;99413.81;;;3.17;100.00
60832;BME280;46665;51.558;-0.448;2023-01-15T01:36:42;99408.13;;;3.14;100.00
60832;BME280;46665;51.558;-0.448;2023-01-15T01:39:27;99418.88;;;3.14;100.00
60832;BME280;46665;51.558;-0.448;2023-01-15T01:42:13;99416.75;;;3.16;100.00
60832;BME280;46665;51.558;-0.448;2023-01-15T01:45:25;99418.66;;;3.25;100.00
60832;BME280;46665;51.558;-0.448;2023-01-15T01:48:10;99422.44;;;3.24;100.00
60832;BME280;46665;51.558;-0.448;2023-01-15T01:50:56;99411.13;;;3.22;100.00
60832;BME280;46665;51.558;-0.448;2023-01-15T01:53:43;99415.19;;;3.25;100.00
60832;BME280;46665;51.558;-0.448;2023-01-15T01:56:28;99423.50;;;3.23;100.00
60832;BME280;46665;51.558;-0.448;2023-01-15T01:59:14;99421.91;;;3.22;100.00
60832;BME280;46665;51.558;-0.448;2023-01-15T02:01:59;99431.84;;;3.22;100.00
60832;BME280;46665;51.558;-0.448;2023-01-15T02:04:43;99426.16;;;3.18;100.00
60832;BME280;46665;51.558;-0.448;2023-01-15T02:07:27;99426.69;;;3.15;100.00
60832;BME280;46665;51.558;-0.448;2023-01-15T02:10:15;99432.63;;;3.17;100.00
60832;BME280;46665;51.558;-0.448;2023-01-15T02:13:04;99423.19;;;3.10;100.00
60832;BME280;46665;51.558;-0.448;2023-01-15T02:15:59;99419.13;;;3.07;100.00
60832;BME280;46665;51.558;-0.448;2023-01-15T02:21:54;99414.50;;;2.97;100.00
60832;BME280;46665;51.558;-0.448;2023-01-15T02:27:46;99414.50;;;2.97;100.00
60832;BME280;46665;51.558;-0.448;2023-01-15T02:30:41;99420.13;;;2.96;100.00
60832;BME280;46665;51.558;-0.448;2023-01-15T02:33:34;99417.44;;;2.96;100.00
60832;BME280;46665;51.558;-0.448;2023-01-15T02:36:22;99415.31;;;2.98;100.00
60832;BME280;46665;51.558;-0.448;2023-01-15T02:39:09;99413.97;;;2.95;100.00
60832;BME280;46665;51.558;-0.448;2023-01-15T02:41:58;99419.63;;;2.94;100.00
60832;BME280;46665;51.558;-0.448;2023-01-15T02:44:47;99417.16;;;2.92;100.00
60832;BME280;46665;51.558;-0.448;2023-01-15T02:47:34;99403.72;;;2.87;100.00
60832;BME280;46665;51.558;-0.448;2023-01-15T02:50:26;99403.41;;;2.83;100.00
60832;BME280;46665;51.558;-0.448;2023-01-15T02:53:17;99407.97;;;2.83;100.00
60832;BME280;46665;51.558;-0.448;2023-01-15T02:56:10;99388.38;;;2.82;100.00
60832;BME280;46665;51.558;-0.448;2023-01-15T02:58:59;99387.28;;;2.83;100.00
60832;BME280;46665;51.558;-0.448;2023-01-15T03:01:50;99376.81;;;2.82;100.00
60832;BME280;46665;51.558;-0.448;2023-01-15T03:07:35;99367.97;;;2.81;100.00
60832;BME280;46665;51.558;-0.448;2023-01-15T03:10:30;99369.00;;;2.80;100.00
60832;BME280;46665;51.558;-0.448;2023-01-15T03:13:20;99373.84;;;2.83;100.00
60832;BME280;46665;51.558;-0.448;2023-01-15T03:16:16;99363.38;;;2.82;100.00
60832;BME280;46665;51.558;-0.448;2023-01-15T03:19:38;99366.88;;;2.82;100.00
60832;BME280;46665;51.558;-0.448;2023-01-15T03:22:31;99353.41;;;2.77;100.00
60832;BME280;46665;51.558;-0.448;2023-01-15T03:25:19;99347.25;;;2.82;100.00
60832;BME280;46665;51.558;-0.448;2023-01-15T03:28:06;99349.66;;;2.83;100.00
60832;BME280;46665;51.558;-0.448;2023-01-15T03:30:51;99357.47;;;2.80;100.00
60832;BME280;46665;51.558;-0.448;2023-01-15T03:33:35;99380.03;;;2.79;100.00
60832;BME280;46665;51.558;-0.448;2023-01-15T03:36:19;99379.19;;;2.78;100.00
60832;BME280;46665;51.558;-0.448;2023-01-15T03:39:03;99384.06;;;2.76;100.00
60832;BME280;46665;51.558;-0.448;2023-01-15T03:45:01;99392.34;;;2.75;100.00
60832;BME280;46665;51.558;-0.448;2023-01-15T03:50:49;99378.66;;;2.71;100.00
60832;BME280;46665;51.558;-0.448;2023-01-15T03:53:52;99381.34;;;2.76;100.00
60832;BME280;46665;51.558;-0.448;2023-01-15T03:56:50;99371.66;;;2.75;100.00
60832;BME280;46665;51.558;-0.448;2023-01-15T03:59:52;99379.16;;;2.73;100.00
60832;BME280;46665;51.558;-0.448;2023-01-15T04:02:38;99373.78;;;2.68;100.00
60832;BME280;46665;51.558;-0.448;2023-01-15T04:05:24;99381.31;;;2.66;100.00
60832;BME280;46665;51.558;-0.448;2023-01-15T04:08:11;99379.13;;;2.63;100.00
60832;BME280;46665;51.558;-0.448;2023-01-15T04:10:57;99365.19;;;2.66;100.00
60832;BME280;46665;51.558;-0.448;2023-01-15T04:13:42;99376.47;;;2.73;100.00
60832;BME280;46665;51.558;-0.448;2023-01-15T04:16:28;99361.97;;;2.69;100.00
60832;BME280;46665;51.558;-0.448;2023-01-15T04:19:12;99365.47;;;2.70;100.00
60832;BME280;46665;51.558;-0.448;2023-01-15T04:21:56;99366.00;;;2.67;100.00
60832;BME280;46665;51.558;-0.448;2023-01-15T04:24:40;99358.72;;;2.62;100.00
60832;BME280;46665;51.558;-0.448;2023-01-15T04:27:24;99358.72;;;2.62;100.00
60832;BME280;46665;51.558;-0.448;2023-01-15T04:30:10;99367.59;;;2.68;100.00
60832;BME280;46665;51.558;-0.448;2023-01-15T04:32:55;99337.22;;;2.62;100.00
60832;BME280;46665;51.558;-0.448;2023-01-15T04:35:39;99348.53;;;2.64;100.00
60832;BME280;46665;51.558;-0.448;2023-01-15T04:38:23;99348.78;;;2.63;100.00
60832;BME280;46665;51.558;-0.448;2023-01-15T04:41:07;99339.91;;;2.62;100.00
60832;BME280;46665;51.558;-0.448;2023-01-15T04:44:10;99345.53;;;2.60;100.00
60832;BME280;46665;51.558;-0.448;2023-01-15T04:46:55;99356.28;;;2.60;100.00
60832;BME280;46665;51.558;-0.448;2023-01-15T04:49:40;99349.28;;;2.59;100.00
60832;BME280;46665;51.558;-0.448;2023-01-15T04:52:23;99347.97;;;2.62;100.00
60832;BME280;46665;51.558;-0.448;2023-01-15T04:55:07;99349.56;;;2.63;100.00
60832;BME280;46665;51.558;-0.448;2023-01-15T04:57:51;99351.72;;;2.61;100.00
60832;BME280;46665;51.558;-0.448;2023-01-15T05:00:35;99339.94;;;2.67;100.00
60832;BME280;46665;51.558;-0.448;2023-01-15T05:03:19;99339.41;;;2.70;100.00
60832;BME280;46665;51.558;-0.448;2023-01-15T05:06:04;99341.00;;;2.66;100.00
60832;BME280;46665;51.558;-0.448;2023-01-15T05:08:48;99321.38;;;2.66;100.00
60832;BME280;46665;51.558;-0.448;2023-01-15T05:11:36;99323.78;;;2.62;100.00
60832;BME280;46665;51.558;-0.448;2023-01-15T05:14:20;99325.16;;;2.65;100.00
60832;BME280;46665;51.558;-0.448;2023-01-15T05:17:04;99324.63;;;2.68;100.00
60832;BME280;46665;51.558;-0.448;2023-01-15T05:19:48;99322.22;;;2.66;100.00
60832;BME280;46665;51.558;-0.448;2023-01-15T05:22:33;99323.28;;;2.70;100.00
60832;BME280;46665;51.558;-0.448;2023-01-15T05:25:18;99322.22;;;2.66;100.00
60832;BME280;46665;51.558;-0.448;2023-01-15T05:28:02;99316.88;;;2.71;100.00
60832;BME280;46665;51.558;-0.448;2023-01-15T05:30:46;99303.72;;;2.75;100.00
60832;BME280;46665;51.558;-0.448;2023-01-15T05:33:29;99306.66;;;2.78;100.00
60832;BME280;46665;51.558;-0.448;2023-01-15T05:36:16;99305.09;;;2.82;100.00
60832;BME280;46665;51.558;-0.448;2023-01-15T05:39:01;99325.00;;;2.92;100.00
60832;BME280;46665;51.558;-0.448;2023-01-15T05:41:45;99326.38;;;2.94;100.00
60832;BME280;46665;51.558;-0.448;2023-01-15T05:44:32;99335.22;;;2.90;100.00
60832;BME280;46665;51.558;-0.448;2023-01-15T05:47:16;99321.00;;;2.99;100.00
60832;BME280;46665;51.558;-0.448;2023-01-15T05:50:00;99312.16;;;2.99;100.00
60832;BME280;46665;51.558;-0.448;2023-01-15T05:52:44;99306.50;;;3.00;100.00
60832;BME280;46665;51.558;-0.448;2023-01-15T05:55:28;99309.19;;;3.06;100.00
60832;BME280;46665;51.558;-0.448;2023-01-15T05:58:12;99288.78;;;3.04;100.00
60832;BME280;46665;51.558;-0.448;2023-01-15T06:00:56;99287.16;;;3.09;100.00
60832;BME280;46665;51.558;-0.448;2023-01-15T06:03:41;99293.63;;;3.08;100.00
60832;BME280;46665;51.558;-0.448;2023-01-15T06:06:25;99298.44;;;3.11;100.00
60832;BME280;46665;51.558;-0.448;2023-01-15T06:09:09;99291.75;;;3.13;100.00
60832;BME280;46665;51.558;-0.448;2023-01-15T06:11:54;99283.94;;;3.07;100.00
60832;BME280;46665;51.558;-0.448;2023-01-15T06:14:38;99287.44;;;3.07;100.00
60832;BME280;46665;51.558;-0.448;2023-01-15T06:17:22;99277.22;;;3.04;100.00
60832;BME280;46665;51.558;-0.448;2023-01-15T06:20:06;99268.06;;;3.00;100.00
60832;BME280;46665;51.558;-0.448;2023-01-15T06:22:50;99277.22;;;2.99;100.00
60832;BME280;46665;51.558;-0.448;2023-01-15T06:25:35;99267.78;;;2.96;100.00
60832;BME280;46665;51.558;-0.448;2023-01-15T06:28:19;99266.44;;;2.94;100.00
60832;BME280;46665;51.558;-0.448;2023-01-15T06:31:05;99267.22;;;2.89;100.00
60832;BME280;46665;51.558;-0.448;2023-01-15T06:33:49;99274.50;;;2.89;100.00
60832;BME280;46665;51.558;-0.448;2023-01-15T06:36:34;99283.59;;;2.88;100.00
60832;BME280;46665;51.558;-0.448;2023-01-15T06:39:18;99295.44;;;2.87;100.00
60832;BME280;46665;51.558;-0.448;2023-01-15T06:42:02;99275.00;;;2.86;100.00
60832;BME280;46665;51.558;-0.448;2023-01-15T06:45:05;99284.69;;;2.87;100.00
60832;BME280;46665;51.558;-0.448;2023-01-15T06:48:08;99277.41;;;2.82;100.00
60832;BME280;46665;51.558;-0.448;2023-01-15T06:50:52;99286.03;;;2.84;100.00
60832;BME280;46665;51.558;-0.448;2023-01-15T06:53:37;99283.06;;;2.86;100.00
60832;BME280;46665;51.558;-0.448;2023-01-15T06:56:21;99290.03;;;2.81;100.00
60832;BME280;46665;51.558;-0.448;2023-01-15T06:59:04;99312.06;;;2.83;100.00
60832;BME280;46665;51.558;-0.448;2023-01-15T07:01:48;99298.69;;;2.89;100.00
60832;BME280;46665;51.558;-0.448;2023-01-15T07:04:32;99299.47;;;2.89;100.00
60832;BME280;46665;51.558;-0.448;2023-01-15T07:07:18;99298.38;;;2.85;100.00
60832;BME280;46665;51.558;-0.448;2023-01-15T07:10:02;99295.47;;;2.92;100.00
60832;BME280;46665;51.558;-0.448;2023-01-15T07:12:47;99293.31;;;2.89;100.00
60832;BME280;46665;51.558;-0.448;2023-01-15T07:15:30;99290.06;;;2.87;100.00
60832;BME280;46665;51.558;-0.448;2023-01-15T07:18:15;99300.03;;;2.91;100.00
60832;BME280;46665;51.558;-0.448;2023-01-15T07:20:59;99284.97;;;2.95;100.00
60832;BME280;46665;51.558;-0.448;2023-01-15T07:23:43;99278.81;;;3.00;100.00
60832;BME280;46665;51.558;-0.448;2023-01-15T07:26:27;99272.91;;;3.03;100.00
60832;BME280;46665;51.558;-0.448;2023-01-15T07:29:11;99260.00;;;3.05;100.00
60832;BME280;46665;51.558;-0.448;2023-01-15T07:31:56;99255.72;;;3.09;100.00
60832;BME280;46665;51.558;-0.448;2023-01-15T07:34:40;99260.03;;;3.10;100.00
60832;BME280;46665;51.558;-0.448;2023-01-15T07:37:24;99275.34;;;3.10;100.00
60832;BME280;46665;51.558;-0.448;2023-01-15T07:40:09;99280.97;;;3.08;100.00
60832;BME280;46665;51.558;-0.448;2023-01-15T07:42:53;99271.88;;;3.14;100.00
60832;BME280;46665;51.558;-0.448;2023-01-15T07:45:56;99251.19;;;3.20;100.00
60832;BME280;46665;51.558;-0.448;2023-01-15T07:48:59;99261.41;;;3.23;100.00
60832;BME280;46665;51.558;-0.448;2023-01-15T07:52:02;99262.75;;;3.36;100.00
60832;BME280;46665;51.558;-0.448;2023-01-15T07:54:47;99270.28;;;3.34;100.00
60832;BME280;46665;51.558;-0.448;2023-01-15T07:57:31;99257.66;;;3.39;100.00
60832;BME280;46665;51.558;-0.448;2023-01-15T08:00:20;99272.16;;;3.43;100.00
60832;BME280;46665;51.558;-0.448;2023-01-15T08:03:04;99278.91;;;3.51;100.00
60832;BME280;46665;51.558;-0.448;2023-01-15T08:05:49;99283.47;;;3.51;100.00
60832;BME280;46665;51.558;-0.448;2023-01-15T08:08:33;99276.22;;;3.56;100.00
60832;BME280;46665;51.558;-0.448;2023-01-15T08:11:17;99287.25;;;3.60;100.00
60832;BME280;46665;51.558;-0.448;2023-01-15T08:14:20;99294.50;;;3.54;100.00
60832;BME280;46665;51.558;-0.448;2023-01-15T08:17:22;99300.41;;;3.51;100.00
60832;BME280;46665;51.558;-0.448;2023-01-15T08:20:19;99311.19;;;3.51;100.00
60832;BME280;46665;51.558;-0.448;2023-01-15T08:23:03;99308.78;;;3.50;100.00
60832;BME280;46665;51.558;-0.448;2023-01-15T08:25:47;99306.59;;;3.52;100.00
60832;BME280;46665;51.558;-0.448;2023-01-15T08:28:31;99300.97;;;3.53;100.00
60832;BME280;46665;51.558;-0.448;2023-01-15T08:31:15;99300.72;;;3.50;100.00
60832;BME280;46665;51.558;-0.448;2023-01-15T08:33:59;99306.34;;;3.53;100.00
60832;BME280;46665;51.558;-0.448;2023-01-15T08:36:42;99308.22;;;3.53;100.00
60832;BME280;46665;51.558;-0.448;2023-01-15T08:39:26;99305.81;;;3.51;100.00
60832;BME280;46665;51.558;-0.448;2023-01-15T08:42:11;99318.72;;;3.54;100.00
60832;BME280;46665;51.558;-0.448;2023-01-15T08:44:55;99305.81;;;3.51;100.00
60832;BME280;46665;51.558;-0.448;2023-01-15T08:47:39;99306.91;;;3.65;100.00
60832;BME280;46665;51.558;-0.448;2023-01-15T08:50:23;99310.13;;;3.67;100.00
60832;BME280;46665;51.558;-0.448;2023-01-15T08:53:07;99311.19;;;3.77;100.00
60832;BME280;46665;51.558;-0.448;2023-01-15T08:55:51;99313.34;;;3.75;100.00
60832;BME280;46665;51.558;-0.448;2023-01-15T08:58:35;99312.84;;;3.78;100.00
60832;BME280;46665;51.558;-0.448;2023-01-15T09:01:20;99316.59;;;3.82;100.00
60832;BME280;46665;51.558;-0.448;2023-01-15T09:04:04;99339.19;;;3.91;100.00
60832;BME280;46665;51.558;-0.448;2023-01-15T09:06:50;99338.66;;;3.94;100.00
60832;BME280;46665;51.558;-0.448;2023-01-15T09:09:34;99341.88;;;3.96;100.00
60832;BME280;46665;51.558;-0.448;2023-01-15T09:12:18;99352.13;;;4.04;100.00
60832;BME280;46665;51.558;-0.448;2023-01-15T09:15:02;99351.84;;;4.11;100.00
60832;BME280;46665;51.558;-0.448;2023-01-15T09:17:47;99349.16;;;4.21;100.00
60832;BME280;46665;51.558;-0.448;2023-01-15T09:20:31;99360.19;;;4.20;100.00
60832;BME280;46665;51.558;-0.448;2023-01-15T09:23:15;99352.09;;;4.30;100.00
60832;BME280;46665;51.558;-0.448;2023-01-15T09:26:01;99353.72;;;4.31;100.00
60832;BME280;46665;51.558;-0.448;2023-01-15T09:28:47;99361.50;;;4.38;100.00
60832;BME280;46665;51.558;-0.448;2023-01-15T09:31:32;99359.09;;;4.41;100.00
60832;BME280;46665;51.558;-0.448;2023-01-15T09:34:16;99364.72;;;4.50;100.00
60832;BME280;46665;51.558;-0.448;2023-01-15T09:37:00;99365.28;;;4.52;100.00
60832;BME280;46665;51.558;-0.448;2023-01-15T09:39:44;99372.00;;;4.54;100.00
60832;BME280;46665;51.558;-0.448;2023-01-15T09:42:31;99382.22;;;4.57;100.00
60832;BME280;46665;51.558;-0.448;2023-01-15T09:49:01;99389.75;;;4.66;100.00
60832;BME280;46665;51.558;-0.448;2023-01-15T09:52:12;99395.41;;;4.69;100.00
60832;BME280;46665;51.558;-0.448;2023-01-15T09:55:26;99397.31;;;4.69;100.00
60832;BME280;46665;51.558;-0.448;2023-01-15T09:58:14;99395.66;;;4.73;100.00
60832;BME280;46665;51.558;-0.448;2023-01-15T10:00:59;99413.47;;;4.79;100.00
60832;BME280;46665;51.558;-0.448;2023-01-15T10:03:51;99434.22;;;4.84;100.00
60832;BME280;46665;51.558;-0.448;2023-01-15T10:09:29;99429.34;;;4.86;100.00
60832;BME280;46665;51.558;-0.448;2023-01-15T10:12:23;99427.47;;;4.91;100.00
60832;BME280;46665;51.558;-0.448;2023-01-15T10:15:39;99430.94;;;5.02;100.00
60832;BME280;46665;51.558;-0.448;2023-01-15T10:18:25;99429.00;;;5.08;100.00
60832;BME280;46665;51.558;-0.448;2023-01-15T10:27:21;99437.81;;;5.34;100.00
60832;BME280;46665;51.558;-0.448;2023-01-15T10:30:25;99454.53;;;5.36;100.00
60832;BME280;46665;51.558;-0.448;2023-01-15T10:36:41;99442.31;;;5.54;100.00
60832;BME280;46665;51.558;-0.448;2023-01-15T10:45:50;99449.53;;;5.74;100.00
60832;BME280;46665;51.558;-0.448;2023-01-15T10:54:44;99446.72;;;5.94;98.70
60832;BME280;46665;51.558;-0.448;2023-01-15T10:57:51;99466.44;;;5.95;98.88
60832;BME280;46665;51.558;-0.448;2023-01-15T11:00:39;99470.75;;;5.96;100.00
60832;BME280;46665;51.558;-0.448;2023-01-15T11:03:34;99459.97;;;5.91;98.49
60832;BME280;46665;51.558;-0.448;2023-01-15T11:06:22;99466.44;;;5.90;99.06
60832;BME280;46665;51.558;-0.448;2023-01-15T11:09:20;99477.53;;;5.88;99.09
60832;BME280;46665;51.558;-0.448;2023-01-15T11:12:25;99471.84;;;5.90;98.50
60832;BME280;46665;51.558;-0.448;2023-01-15T11:15:22;99482.94;;;5.88;98.55
60832;BME280;46665;51.558;-0.448;2023-01-15T11:18:27;99478.34;;;5.83;97.76
60832;BME280;46665;51.558;-0.448;2023-01-15T11:21:31;99471.88;;;5.79;99.54
60832;BME280;46665;51.558;-0.448;2023-01-15T11:24:16;99473.03;;;5.68;100.00
60832;BME280;46665;51.558;-0.448;2023-01-15T11:27:01;99463.34;;;5.57;100.00
60832;BME280;46665;51.558;-0.448;2023-01-15T11:29:54;99489.34;;;5.42;100.00
60832;BME280;46665;51.558;-0.448;2023-01-15T11:32:38;99468.84;;;5.31;100.00
60832;BME280;46665;51.558;-0.448;2023-01-15T11:35:22;99461.09;;;5.19;100.00
60832;BME280;46665;51.558;-0.448;2023-01-15T11:38:12;99459.19;;;5.15;100.00
60832;BME280;46665;51.558;-0.448;2023-01-15T11:40:58;99464.63;;;5.10;100.00
60832;BME280;46665;51.558;-0.448;2023-01-15T11:43:42;99463.00;;;5.04;100.00
60832;BME280;46665;51.558;-0.448;2023-01-15T11:46:45;99458.69;;;5.03;100.00
60832;BME280;46665;51.558;-0.448;2023-01-15T11:49:52;99454.09;;;5.08;100.00
60832;BME280;46665;51.558;-0.448;2023-01-15T11:52:56;99455.13;;;5.22;100.00
60832;BME280;46665;51.558;-0.448;2023-01-15T11:55:50;99449.94;;;5.36;100.00
60832;BME280;46665;51.558;-0.448;2023-01-15T11:58:41;99444.81;;;5.45;100.00
60832;BME280;46665;51.558;-0.448;2023-01-15T12:01:35;99440.13;;;5.66;100.00
60832;BME280;46665;51.558;-0.448;2023-01-15T12:04:35;99435.25;;;5.68;98.46
60832;BME280;46665;51.558;-0.448;2023-01-15T12:07:21;99436.06;;;5.63;99.39
60832;BME280;46665;51.558;-0.448;2023-01-15T12:25:55;99414.84;;;6.36;97.36
60832;BME280;46665;51.558;-0.448;2023-01-15T12:28:57;99407.47;;;6.46;95.25
60832;BME280;46665;51.558;-0.448;2023-01-15T12:31:50;99399.56;;;6.50;93.20
60832;BME280;46665;51.558;-0.448;2023-01-15T12:34:57;99407.19;;;6.43;93.13
60832;BME280;46665;51.558;-0.448;2023-01-15T12:37:58;99402.41;;;6.35;94.38
60832;BME280;46665;51.558;-0.448;2023-01-15T12:40:51;99407.59;;;6.31;96.56
60832;BME280;46665;51.558;-0.448;2023-01-15T12:43:42;99403.34;;;6.20;96.08
60832;BME280;46665;51.558;-0.448;2023-01-15T12:46:46;99403.75;;;6.03;95.69
60832;BME280;46665;51.558;-0.448;2023-01-15T12:49:39;99393.53;;;5.90;96.68
60832;BME280;46665;51.558;-0.448;2023-01-15T12:52:29;99390.84;;;5.90;96.75
60832;BME280;46665;51.558;-0.448;2023-01-15T12:55:27;99389.47;;;5.97;97.33
60832;BME280;46665;51.558;-0.448;2023-01-15T12:58:22;99380.03;;;5.95;97.30
60832;BME280;46665;51.558;-0.448;2023-01-15T13:04:21;99375.16;;;5.92;94.06
60832;BME280;46665;51.558;-0.448;2023-01-15T13:10:19;99373.22;;;6.02;94.66
60832;BME280;46665;51.558;-0.448;2023-01-15T13:13:21;99379.84;;;6.20;93.88
60832;BME280;46665;51.558;-0.448;2023-01-15T13:22:02;99356.91;;;6.47;95.03
60832;BME280;46665;51.558;-0.448;2023-01-15T13:33:41;99351.97;;;6.54;93.82
60832;BME280;46665;51.558;-0.448;2023-01-15T13:36:39;99348.75;;;6.52;93.91
60832;BME280;46665;51.558;-0.448;2023-01-15T13:39:36;99347.44;;;6.49;91.31
60832;BME280;46665;51.558;-0.448;2023-01-15T13:42:24;99339.09;;;6.46;91.48
60832;BME280;46665;51.558;-0.448;2023-01-15T13:48:30;99323.47;;;6.38;91.58
60832;BME280;46665;51.558;-0.448;2023-01-15T13:51:32;99340.78;;;6.37;88.91
60832;BME280;46665;51.558;-0.448;2023-01-15T13:54:24;99328.09;;;6.37;88.85
60832;BME280;46665;51.558;-0.448;2023-01-15T13:57:22;99334.59;;;6.36;86.70
60832;BME280;46665;51.558;-0.448;2023-01-15T14:03:58;99337.03;;;6.33;86.43
60832;BME280;46665;51.558;-0.448;2023-01-15T14:06:45;99335.72;;;6.30;86.41
60832;BME280;46665;51.558;-0.448;2023-01-15T14:09:29;99337.66;;;6.24;85.00
60832;BME280;46665;51.558;-0.448;2023-01-15T14:15:36;99315.03;;;6.20;87.44
60832;BME280;46665;51.558;-0.448;2023-01-15T14:18:38;99311.22;;;6.21;87.45
60832;BME280;46665;51.558;-0.448;2023-01-15T14:25:01;99316.38;;;6.18;86.26
60832;BME280;46665;51.558;-0.448;2023-01-15T14:31:13;99302.38;;;6.16;87.36
60832;BME280;46665;51.558;-0.448;2023-01-15T14:37:16;99299.72;;;6.11;87.64
60832;BME280;46665;51.558;-0.448;2023-01-15T14:40:05;99307.56;;;6.07;87.50
60832;BME280;46665;51.558;-0.448;2023-01-15T14:42:52;99311.38;;;6.06;87.76
60832;BME280;46665;51.558;-0.448;2023-01-15T14:45:50;99312.44;;;6.05;87.13
60832;BME280;46665;51.558;-0.448;2023-01-15T14:48:37;99317.34;;;6.03;87.75
60832;BME280;46665;51.558;-0.448;2023-01-15T14:51:26;99310.88;;;5.99;87.48
60832;BME280;46665;51.558;-0.448;2023-01-15T14:54:14;99302.50;;;6.00;86.61
60832;BME280;46665;51.558;-0.448;2023-01-15T14:57:05;99300.34;;;5.97;87.69
60832;BME280;46665;51.558;-0.448;2023-01-15T14:59:57;99304.16;;;5.96;87.15
60832;BME280;46665;51.558;-0.448;2023-01-15T15:02:44;99297.97;;;5.91;86.58
60832;BME280;46665;51.558;-0.448;2023-01-15T15:05:32;99299.03;;;5.90;86.50
60832;BME280;46665;51.558;-0.448;2023-01-15T15:08:18;99298.00;;;5.85;87.03
60832;BME280;46665;51.558;-0.448;2023-01-15T15:11:03;99300.75;;;5.80;85.81
60832;BME280;46665;51.558;-0.448;2023-01-15T15:14:10;99296.72;;;5.78;86.82
60832;BME280;46665;51.558;-0.448;2023-01-15T15:16:59;99302.69;;;5.75;86.79
60832;BME280;46665;51.558;-0.448;2023-01-15T15:19:49;99292.97;;;5.74;86.91
60832;BME280;46665;51.558;-0.448;2023-01-15T15:22:37;99299.72;;;5.71;89.09
60832;BME280;46665;51.558;-0.448;2023-01-15T15:25:24;99297.59;;;5.68;88.20
60832;BME280;46665;51.558;-0.448;2023-01-15T15:28:10;99287.13;;;5.61;88.29
60832;BME280;46665;51.558;-0.448;2023-01-15T15:30:55;99283.88;;;5.59;89.92
60832;BME280;46665;51.558;-0.448;2023-01-15T15:33:44;99288.81;;;5.52;90.63
60832;BME280;46665;51.558;-0.448;2023-01-15T15:36:30;99286.16;;;5.47;90.73
60832;BME280;46665;51.558;-0.448;2023-01-15T15:39:19;99282.13;;;5.45;90.89
60832;BME280;46665;51.558;-0.448;2023-01-15T15:42:14;99278.63;;;5.39;91.31
60832;BME280;46665;51.558;-0.448;2023-01-15T15:45:28;99277.59;;;5.35;91.78
60832;BME280;46665;51.558;-0.448;2023-01-15T15:48:32;99283.81;;;5.30;92.86
60832;BME280;46665;51.558;-0.448;2023-01-15T15:54:31;99285.78;;;5.19;93.99
60832;BME280;46665;51.558;-0.448;2023-01-15T15:57:17;99293.06;;;5.14;93.89
60832;BME280;46665;51.558;-0.448;2023-01-15T16:00:03;99288.81;;;5.08;94.78
60832;BME280;46665;51.558;-0.448;2023-01-15T16:02:47;99287.75;;;5.04;95.13
60832;BME280;46665;51.558;-0.448;2023-01-15T16:05:31;99285.59;;;5.00;95.99
60832;BME280;46665;51.558;-0.448;2023-01-15T16:08:19;99290.22;;;4.95;96.98
60832;BME280;46665;51.558;-0.448;2023-01-15T16:11:06;99292.94;;;4.90;97.68
60832;BME280;46665;51.558;-0.448;2023-01-15T16:13:53;99284.06;;;4.84;97.73
60832;BME280;46665;51.558;-0.448;2023-01-15T16:16:39;99291.63;;;4.82;98.25
60832;BME280;46665;51.558;-0.448;2023-01-15T16:19:23;99285.47;;;4.76;99.45
60832;BME280;46665;51.558;-0.448;2023-01-15T16:22:12;99296.25;;;4.71;99.68
60832;BME280;46665;51.558;-0.448;2023-01-15T16:24:58;99303.03;;;4.64;100.00
60832;BME280;46665;51.558;-0.448;2023-01-15T16:27:42;99294.94;;;4.59;100.00